createdAt,value
2022-11-19T00:00:56.449Z,8.63
2022-11-19T00:03:52.344Z,8.47
2022-11-19T00:06:45.588Z,8.47
2022-11-19T00:09:37.226Z,7.73
2022-11-19T00:12:43.559Z,8.03
2022-11-19T00:19:23.159Z,8.10
2022-11-19T00:22:14.761Z,7.47
2022-11-19T00:25:17.243Z,9.00
2022-11-19T00:28:06.736Z,8.77
2022-11-19T00:30:55.301Z,8.50
2022-11-19T00:33:46.277Z,7.83
2022-11-19T00:36:39.919Z,8.40
2022-11-19T00:39:30.408Z,8.20
2022-11-19T00:42:30.352Z,8.50
2022-11-19T00:45:18.878Z,8.63
2022-11-19T00:48:10.607Z,7.60
2022-11-19T00:51:03.373Z,7.93
2022-11-19T00:53:53.545Z,8.47
2022-11-19T00:56:43.292Z,8.07
2022-11-19T00:59:32.794Z,7.47
2022-11-19T01:02:23.642Z,7.97
2022-11-19T01:05:12.218Z,7.80
2022-11-19T01:08:03.117Z,7.37
2022-11-19T01:10:55.322Z,7.17
2022-11-19T01:13:44.372Z,7.37
2022-11-19T01:16:34.142Z,7.53
2022-11-19T01:19:27.956Z,7.30
2022-11-19T01:22:19.175Z,7.13
2022-11-19T01:25:07.996Z,7.87
2022-11-19T01:28:00.020Z,7.70
2022-11-19T01:30:48.609Z,7.60
2022-11-19T01:33:39.270Z,7.20
2022-11-19T01:36:30.081Z,7.43
2022-11-19T01:39:20.656Z,7.80
2022-11-19T01:42:40.358Z,7.30
2022-11-19T01:45:35.158Z,7.20
2022-11-19T01:48:32.410Z,6.70
2022-11-19T01:51:25.808Z,7.33
2022-11-19T01:54:25.440Z,8.07
2022-11-19T01:57:17.631Z,8.00
2022-11-19T02:00:07.880Z,7.50
2022-11-19T02:03:01.594Z,7.90
2022-11-19T02:05:51.382Z,7.90
2022-11-19T02:08:41.471Z,7.27
2022-11-19T02:11:42.510Z,7.40
2022-11-19T02:14:52.019Z,7.90
2022-11-19T02:17:48.868Z,7.80
2022-11-19T02:20:51.603Z,8.40
2022-11-19T02:23:51.708Z,8.00
2022-11-19T02:26:58.312Z,8.10
2022-11-19T02:30:00.369Z,7.97
2022-11-19T02:33:14.650Z,7.93
2022-11-19T02:36:11.742Z,8.00
2022-11-19T02:39:06.664Z,7.70
2022-11-19T02:42:01.412Z,8.10
2022-11-19T02:45:01.635Z,7.80
2022-11-19T02:47:57.228Z,8.20
2022-11-19T02:50:50.951Z,8.20
2022-11-19T02:53:45.475Z,7.77
2022-11-19T02:56:52.589Z,7.40
2022-11-19T03:00:00.860Z,8.23
2022-11-19T03:03:12.721Z,7.90
2022-11-19T03:06:03.652Z,8.87
2022-11-19T03:08:56.229Z,7.97
2022-11-19T03:11:49.357Z,8.07
2022-11-19T03:15:06.071Z,8.00
2022-11-19T03:18:04.764Z,8.10
2022-11-19T03:20:56.789Z,8.67
2022-11-19T03:23:51.929Z,7.60
2022-11-19T03:26:42.923Z,8.40
2022-11-19T03:29:35.690Z,7.83
2022-11-19T03:32:34.070Z,7.70
2022-11-19T03:35:27.523Z,7.67
2022-11-19T03:38:18.527Z,8.10
2022-11-19T03:41:11.603Z,8.67
2022-11-19T03:44:02.945Z,7.83
2022-11-19T03:46:53.136Z,8.47
2022-11-19T03:49:45.897Z,8.57
2022-11-19T03:52:37.706Z,8.90
2022-11-19T03:55:32.076Z,7.70
2022-11-19T03:58:25.272Z,7.37
2022-11-19T04:01:13.856Z,7.50
2022-11-19T04:04:20.133Z,7.90
2022-11-19T04:07:09.809Z,8.00
2022-11-19T04:10:01.904Z,7.90
2022-11-19T04:12:53.019Z,7.47
2022-11-19T04:15:49.661Z,7.77
2022-11-19T04:18:46.524Z,8.57
2022-11-19T04:21:35.120Z,8.90
2022-11-19T04:24:29.489Z,8.70
2022-11-19T04:27:18.061Z,8.50
2022-11-19T04:30:09.591Z,8.50
2022-11-19T04:33:02.816Z,9.20
2022-11-19T04:35:54.163Z,9.13
2022-11-19T04:38:43.872Z,9.03
2022-11-19T04:41:32.440Z,9.17
2022-11-19T04:44:29.343Z,9.73
2022-11-19T04:47:25.760Z,9.93
2022-11-19T04:50:18.791Z,10.57
2022-11-19T04:53:09.659Z,11.13
2022-11-19T04:56:07.787Z,11.03
2022-11-19T04:59:02.058Z,11.90
2022-11-19T05:01:58.695Z,11.50
2022-11-19T05:04:49.135Z,11.80
2022-11-19T05:07:40.243Z,10.27
2022-11-19T05:10:30.038Z,11.10
2022-11-19T05:13:23.703Z,11.00
2022-11-19T05:16:13.898Z,10.77
2022-11-19T05:19:02.444Z,10.93
2022-11-19T05:21:55.293Z,10.23
2022-11-19T05:24:46.340Z,10.97
2022-11-19T05:27:38.464Z,10.20
2022-11-19T05:30:29.838Z,10.20
2022-11-19T05:33:20.936Z,11.00
2022-11-19T05:36:11.077Z,10.70
2022-11-19T05:39:01.366Z,9.93
2022-11-19T05:41:53.219Z,10.43
2022-11-19T05:44:43.435Z,9.53
2022-11-19T05:47:36.982Z,10.07
2022-11-19T05:50:31.300Z,9.90
2022-11-19T05:53:21.685Z,10.70
2022-11-19T05:56:10.303Z,11.50
2022-11-19T05:59:00.231Z,10.00
2022-11-19T06:01:48.827Z,9.77
2022-11-19T06:04:37.992Z,10.20
2022-11-19T06:07:29.635Z,9.10
2022-11-19T06:10:23.215Z,9.80
2022-11-19T06:13:38.629Z,9.07
2022-11-19T06:16:30.984Z,9.10
2022-11-19T06:19:21.338Z,9.00
2022-11-19T06:22:10.991Z,9.80
2022-11-19T06:25:03.444Z,9.33
2022-11-19T06:27:59.227Z,8.67
2022-11-19T06:30:52.837Z,9.00
2022-11-19T06:33:46.714Z,9.53
2022-11-19T06:36:41.941Z,8.70
2022-11-19T06:39:35.111Z,9.50
2022-11-19T06:42:38.806Z,9.47
2022-11-19T06:45:29.336Z,8.80
2022-11-19T06:48:20.026Z,8.77
2022-11-19T06:51:11.217Z,9.80
2022-11-19T06:54:03.798Z,9.40
2022-11-19T06:56:52.302Z,9.20
2022-11-19T06:59:40.842Z,9.80
2022-11-19T07:02:37.655Z,8.90
2022-11-19T07:05:26.229Z,9.20
2022-11-19T07:08:16.283Z,9.10
2022-11-19T07:11:25.595Z,9.13
2022-11-19T07:14:14.667Z,8.80
2022-11-19T07:17:03.477Z,9.90
2022-11-19T07:19:52.063Z,8.80
2022-11-19T07:22:42.442Z,8.00
2022-11-19T07:25:32.367Z,8.87
2022-11-19T07:28:20.961Z,8.80
2022-11-19T07:31:09.936Z,8.97
2022-11-19T07:33:58.923Z,9.27
2022-11-19T07:36:47.778Z,7.90
2022-11-19T07:39:36.426Z,8.73
2022-11-19T07:42:43.876Z,8.30
2022-11-19T07:45:32.441Z,7.93
2022-11-19T07:48:20.971Z,8.50
2022-11-19T07:51:09.739Z,8.47
2022-11-19T07:53:58.296Z,8.23
2022-11-19T07:56:46.914Z,8.00
2022-11-19T07:59:36.857Z,8.90
2022-11-19T08:02:28.244Z,8.90
2022-11-19T08:05:18.559Z,8.67
2022-11-19T08:08:07.176Z,9.23
2022-11-19T08:10:56.884Z,8.60
2022-11-19T08:13:45.569Z,8.73
2022-11-19T08:16:54.884Z,8.40
2022-11-19T08:19:43.909Z,8.17
2022-11-19T08:22:32.538Z,7.83
2022-11-19T08:25:21.172Z,8.20
2022-11-19T08:28:09.878Z,8.43
2022-11-19T08:30:58.732Z,8.10
2022-11-19T08:33:48.714Z,7.90
2022-11-19T08:36:37.350Z,7.60
2022-11-19T08:39:25.931Z,7.50
2022-11-19T08:42:46.588Z,7.53
2022-11-19T08:45:35.932Z,7.27
2022-11-19T08:48:24.492Z,7.77
2022-11-19T08:51:14.843Z,7.27
2022-11-19T08:54:03.520Z,7.80
2022-11-19T08:56:52.151Z,7.20
2022-11-19T08:59:40.780Z,7.30
2022-11-19T09:02:29.330Z,7.93
2022-11-19T09:05:17.934Z,7.00
2022-11-19T09:08:07.919Z,8.20
2022-11-19T09:10:58.260Z,7.83
2022-11-19T09:13:46.855Z,7.53
2022-11-19T09:16:35.523Z,7.40
2022-11-19T09:19:24.068Z,7.67
2022-11-19T09:22:14.638Z,8.00
2022-11-19T09:25:04.988Z,7.07
2022-11-19T09:27:53.572Z,6.90
2022-11-19T09:30:45.023Z,7.40
2022-11-19T09:33:34.179Z,7.47
2022-11-19T09:36:22.834Z,7.40
2022-11-19T09:39:13.584Z,7.20
2022-11-19T09:42:09.840Z,6.73
2022-11-19T09:45:05.454Z,7.80
2022-11-19T09:48:07.317Z,6.57
2022-11-19T09:51:00.145Z,7.03
2022-11-19T09:53:50.998Z,6.93
2022-11-19T09:56:41.403Z,7.10
2022-11-19T09:59:34.607Z,6.93
2022-11-19T10:02:24.341Z,6.27
2022-11-19T10:05:15.735Z,6.63
2022-11-19T10:08:10.945Z,7.10
2022-11-19T10:11:08.949Z,6.03
2022-11-19T10:14:03.447Z,6.27
2022-11-19T10:17:03.270Z,6.50
2022-11-19T10:19:57.715Z,5.83
2022-11-19T10:22:57.192Z,6.53
2022-11-19T10:25:47.165Z,5.37
2022-11-19T10:28:38.067Z,5.47
2022-11-19T10:31:31.673Z,5.43
2022-11-19T10:34:25.447Z,5.20
2022-11-19T10:37:16.720Z,5.60
2022-11-19T10:40:08.283Z,5.07
2022-11-19T10:42:59.241Z,6.13
2022-11-19T10:45:47.804Z,5.60
2022-11-19T10:48:41.153Z,5.10
2022-11-19T10:51:31.478Z,5.13
2022-11-19T10:54:23.513Z,5.30
2022-11-19T10:57:23.159Z,5.17
2022-11-19T11:00:12.529Z,5.07
2022-11-19T11:03:03.784Z,5.37
2022-11-19T11:09:37.511Z,4.70
2022-11-19T11:12:44.969Z,4.50
2022-11-19T11:15:36.036Z,4.30
2022-11-19T11:18:27.204Z,4.40
2022-11-19T11:21:26.236Z,4.30
2022-11-19T11:24:15.599Z,4.40
2022-11-19T11:27:25.945Z,3.10
2022-11-19T11:30:19.836Z,2.87
2022-11-19T11:33:26.841Z,2.50
2022-11-19T11:36:17.208Z,2.77
2022-11-19T11:39:07.102Z,3.20
2022-11-19T11:42:15.962Z,3.20
2022-11-19T11:45:05.337Z,3.43
2022-11-19T11:47:57.104Z,3.20
2022-11-19T11:50:46.790Z,2.40
2022-11-19T11:53:36.903Z,2.77
2022-11-19T11:56:25.455Z,2.63
2022-11-19T11:59:22.655Z,2.40
2022-11-19T12:02:20.526Z,2.27
2022-11-19T12:05:18.212Z,2.30
2022-11-19T12:08:08.652Z,2.40
2022-11-19T12:11:00.276Z,2.10
2022-11-19T12:14:06.603Z,2.40
2022-11-19T12:17:04.383Z,2.60
2022-11-19T12:20:09.256Z,2.30
2022-11-19T12:23:06.276Z,2.50
2022-11-19T12:26:03.296Z,2.30
2022-11-19T12:29:04.080Z,2.00
2022-11-19T12:32:01.458Z,1.80
2022-11-19T12:34:56.753Z,1.97
2022-11-19T12:37:52.736Z,1.53
2022-11-19T12:40:47.484Z,1.80
2022-11-19T12:43:53.156Z,1.83
2022-11-19T12:46:48.623Z,2.30
2022-11-19T12:49:45.353Z,1.93
2022-11-19T12:52:50.177Z,2.17
2022-11-19T12:55:43.952Z,2.20
2022-11-19T12:58:40.920Z,2.33
2022-11-19T13:01:32.585Z,2.40
2022-11-19T13:04:25.171Z,2.33
2022-11-19T13:07:16.437Z,2.07
2022-11-19T13:10:07.524Z,2.00
2022-11-19T13:12:57.187Z,2.10
2022-11-19T13:15:47.657Z,1.50
2022-11-19T13:18:36.818Z,1.70
2022-11-19T13:21:29.071Z,1.50
2022-11-19T13:24:23.316Z,1.60
2022-11-19T13:27:16.512Z,1.40
2022-11-19T13:30:08.625Z,1.50
2022-11-19T13:33:02.515Z,1.40
2022-11-19T13:35:54.559Z,1.60
2022-11-19T13:38:46.357Z,2.57
2022-11-19T13:41:57.524Z,2.30
2022-11-19T13:44:45.196Z,2.33
2022-11-19T13:47:38.675Z,1.97
2022-11-19T13:50:30.416Z,2.07
2022-11-19T13:53:20.529Z,2.40
2022-11-19T13:56:13.881Z,1.70
2022-11-19T13:59:02.465Z,2.33
2022-11-19T14:02:02.250Z,2.30
2022-11-19T14:05:04.762Z,1.83
2022-11-19T14:08:05.848Z,1.77
2022-11-19T14:11:02.930Z,2.40
2022-11-19T14:13:56.017Z,4.03
2022-11-19T14:17:05.901Z,5.17
2022-11-19T14:20:13.285Z,3.33
2022-11-19T14:23:20.800Z,2.10
2022-11-19T14:26:21.423Z,2.30
2022-11-19T14:29:32.298Z,3.77
2022-11-19T14:32:24.127Z,2.43
2022-11-19T14:35:20.209Z,2.70
2022-11-19T14:38:32.883Z,2.23
2022-11-19T14:41:35.480Z,2.20
2022-11-19T14:44:34.037Z,2.30
2022-11-19T14:47:35.188Z,2.27
2022-11-19T14:50:28.629Z,2.20
2022-11-19T14:53:20.533Z,2.53
2022-11-19T14:56:13.103Z,2.40
2022-11-19T14:59:06.824Z,2.60
2022-11-19T15:01:58.583Z,2.30
2022-11-19T15:04:52.129Z,2.77
2022-11-19T15:07:43.663Z,2.60
2022-11-19T15:10:33.744Z,2.37
2022-11-19T15:13:24.217Z,2.90
2022-11-19T15:16:16.259Z,3.00
2022-11-19T15:19:17.414Z,3.03
2022-11-19T15:22:29.733Z,2.80
2022-11-19T15:25:25.423Z,3.10
2022-11-19T15:28:29.796Z,5.00
2022-11-19T15:31:27.376Z,4.60
2022-11-19T15:34:56.261Z,4.77
2022-11-19T15:37:50.512Z,4.17
2022-11-19T15:40:39.282Z,3.77
2022-11-19T15:43:32.640Z,3.77
2022-11-19T15:46:27.376Z,3.90
2022-11-19T15:49:23.310Z,4.70
2022-11-19T15:52:18.446Z,5.87
2022-11-19T15:55:13.684Z,5.33
2022-11-19T15:58:04.524Z,5.13
2022-11-19T16:00:54.940Z,5.60
2022-11-19T16:03:43.614Z,5.83
2022-11-19T16:06:33.833Z,5.40
2022-11-19T16:09:24.696Z,5.70
2022-11-19T16:12:39.107Z,5.90
2022-11-19T16:15:45.792Z,5.30
2022-11-19T16:18:34.357Z,5.30
2022-11-19T16:21:26.614Z,4.73
2022-11-19T16:24:35.704Z,4.80
2022-11-19T16:27:25.235Z,5.00
2022-11-19T16:30:18.111Z,5.07
2022-11-19T16:33:06.938Z,5.60
2022-11-19T16:36:13.684Z,5.63
2022-11-19T16:39:03.833Z,8.87
2022-11-19T16:42:15.594Z,9.60
2022-11-19T16:45:09.756Z,8.63
2022-11-19T16:47:59.236Z,7.40
2022-11-19T16:50:49.644Z,8.10
2022-11-19T16:53:48.083Z,7.57
2022-11-19T16:56:39.181Z,7.27
2022-11-19T16:59:29.138Z,7.43
2022-11-19T17:02:18.132Z,6.33
2022-11-19T17:05:08.069Z,7.23
2022-11-19T17:08:05.599Z,7.87
2022-11-19T17:11:29.016Z,7.90
2022-11-19T17:14:24.340Z,8.57
2022-11-19T17:17:26.988Z,7.63
2022-11-19T17:20:34.741Z,7.07
2022-11-19T17:23:24.333Z,7.60
2022-11-19T17:26:20.196Z,8.00
2022-11-19T17:29:10.669Z,7.43
2022-11-19T17:31:59.262Z,7.33
2022-11-19T17:34:49.288Z,8.10
2022-11-19T17:37:37.884Z,7.33
2022-11-19T17:40:26.455Z,7.90
2022-11-19T17:43:33.639Z,8.27
2022-11-19T17:46:23.144Z,8.13
2022-11-19T17:49:12.048Z,7.43
2022-11-19T17:52:02.112Z,7.30
2022-11-19T17:54:50.809Z,7.83
2022-11-19T17:57:42.579Z,8.20
2022-11-19T18:00:33.931Z,7.37
2022-11-19T18:03:26.545Z,8.23
2022-11-19T18:06:16.481Z,7.97
2022-11-19T18:09:06.726Z,8.50
2022-11-19T18:11:55.307Z,11.47
2022-11-19T18:14:43.967Z,15.10
2022-11-19T18:17:32.575Z,12.13
2022-11-19T18:20:21.190Z,9.73
2022-11-19T18:23:09.826Z,9.43
2022-11-19T18:25:59.740Z,9.60
2022-11-19T18:28:49.202Z,10.13
2022-11-19T18:31:44.802Z,10.73
2022-11-19T18:34:33.360Z,9.37
2022-11-19T18:37:21.981Z,8.47
2022-11-19T18:40:10.889Z,8.90
2022-11-19T18:43:18.313Z,8.40
2022-11-19T18:46:06.974Z,7.73
2022-11-19T18:48:56.179Z,7.43
2022-11-19T18:51:44.927Z,9.60
2022-11-19T18:54:33.513Z,10.30
2022-11-19T18:57:22.462Z,10.33
2022-11-19T19:00:13.030Z,8.53
2022-11-19T19:03:02.911Z,8.80
2022-11-19T19:05:51.501Z,8.30
2022-11-19T19:08:40.119Z,6.80
2022-11-19T19:11:46.445Z,8.77
2022-11-19T19:14:35.171Z,6.73
2022-11-19T19:17:25.100Z,8.30
2022-11-19T19:20:14.140Z,7.77
2022-11-19T19:23:02.835Z,7.50
2022-11-19T19:25:51.492Z,8.63
2022-11-19T19:28:40.217Z,9.37
2022-11-19T19:31:28.815Z,9.50
2022-11-19T19:34:19.240Z,8.80
2022-11-19T19:37:07.826Z,8.23
2022-11-19T19:39:56.427Z,8.70
2022-11-19T19:42:45.041Z,9.40
2022-11-19T19:45:35.517Z,8.57
2022-11-19T19:48:24.129Z,8.70
2022-11-19T19:51:14.555Z,8.67
2022-11-19T19:54:03.278Z,8.20
2022-11-19T19:56:54.579Z,8.50
2022-11-19T19:59:43.156Z,8.23
2022-11-19T20:02:33.764Z,8.63
2022-11-19T20:05:22.349Z,9.07
2022-11-19T20:08:12.391Z,8.90
2022-11-19T20:11:03.655Z,9.20
2022-11-19T20:13:52.543Z,7.93
2022-11-19T20:16:41.967Z,7.77
2022-11-19T20:19:30.622Z,9.17
2022-11-19T20:22:22.121Z,8.80
2022-11-19T20:25:12.657Z,9.30
2022-11-19T20:28:04.416Z,9.97
2022-11-19T20:30:55.215Z,9.30
2022-11-19T20:33:44.529Z,10.40
2022-11-19T20:36:34.037Z,8.73
2022-11-19T20:39:22.891Z,8.60
2022-11-19T20:42:30.680Z,9.93
2022-11-19T20:45:19.234Z,8.20
2022-11-19T20:48:07.889Z,9.50
2022-11-19T20:50:59.447Z,8.83
2022-11-19T20:53:48.045Z,8.40
2022-11-19T20:56:37.724Z,7.67
2022-11-19T20:59:27.972Z,7.17
2022-11-19T21:02:16.647Z,7.50
2022-11-19T21:05:05.388Z,6.37
2022-11-19T21:07:53.962Z,6.80
2022-11-19T21:10:42.529Z,6.23
2022-11-19T21:13:34.163Z,5.97
2022-11-19T21:16:26.803Z,6.53
2022-11-19T21:19:24.946Z,7.20
2022-11-19T21:22:21.684Z,7.00
2022-11-19T21:25:12.725Z,6.80
2022-11-19T21:28:03.290Z,6.80
2022-11-19T21:30:54.215Z,6.93
2022-11-19T21:33:50.121Z,6.60
2022-11-19T21:36:41.786Z,6.67
2022-11-19T21:39:30.333Z,6.57
2022-11-19T21:42:27.543Z,6.33
2022-11-19T21:45:19.609Z,6.10
2022-11-19T21:48:11.276Z,6.03
2022-11-19T21:51:02.288Z,6.90
2022-11-19T21:53:56.206Z,6.13
2022-11-19T21:56:50.351Z,6.37
2022-11-19T21:59:38.927Z,6.23
2022-11-19T22:02:38.735Z,5.83
2022-11-19T22:05:38.043Z,5.50
2022-11-19T22:08:32.109Z,6.07
2022-11-19T22:11:33.054Z,5.73
2022-11-19T22:14:25.366Z,6.07
2022-11-19T22:17:18.416Z,5.90
2022-11-19T22:20:14.856Z,6.13
2022-11-19T22:23:03.397Z,5.70
2022-11-19T22:25:54.470Z,5.80
2022-11-19T22:28:43.051Z,6.50
2022-11-19T22:31:33.916Z,6.07
2022-11-19T22:34:31.548Z,5.67
2022-11-19T22:37:23.416Z,5.70
2022-11-19T22:40:14.812Z,5.70
2022-11-19T22:43:07.657Z,5.53
2022-11-19T22:45:57.388Z,5.30
2022-11-19T22:48:54.302Z,5.20
2022-11-19T22:51:46.724Z,5.50
2022-11-19T22:54:41.234Z,5.37
2022-11-19T22:57:34.028Z,5.47
2022-11-19T23:00:40.403Z,5.50
2022-11-19T23:03:40.357Z,4.93
2022-11-19T23:06:39.463Z,5.43
2022-11-19T23:09:31.714Z,4.90
2022-11-19T23:12:42.952Z,5.00
2022-11-19T23:15:34.039Z,4.80
2022-11-19T23:18:22.563Z,5.20
2022-11-19T23:21:17.903Z,4.90
2022-11-19T23:24:14.217Z,4.27
2022-11-19T23:27:04.962Z,4.40
2022-11-19T23:30:03.473Z,4.60
2022-11-19T23:32:52.072Z,4.70
2022-11-19T23:35:46.126Z,5.37
2022-11-19T23:38:37.324Z,4.60
2022-11-19T23:41:33.161Z,4.67
2022-11-19T23:44:23.820Z,4.60
2022-11-19T23:47:12.383Z,4.73
2022-11-19T23:50:03.769Z,4.30
2022-11-19T23:52:57.283Z,4.10
2022-11-19T23:55:51.747Z,4.17
2022-11-19T23:58:40.441Z,5.00
